createdAt,value
2023-02-03T00:05:00.148Z,100.00
2023-02-03T00:10:05.940Z,100.00
2023-02-03T00:15:10.639Z,100.00
2023-02-03T00:20:14.204Z,100.00
2023-02-03T00:25:21.544Z,100.00
2023-02-03T00:30:25.317Z,100.00
2023-02-03T00:35:29.344Z,100.00
2023-02-03T00:40:34.324Z,100.00
2023-02-03T00:45:38.640Z,100.00
2023-02-03T00:50:42.622Z,100.00
2023-02-03T00:55:47.595Z,100.00
2023-02-03T01:00:51.514Z,100.00
2023-02-03T01:05:55.312Z,100.00
2023-02-03T01:11:00.271Z,100.00
2023-02-03T01:16:03.920Z,99.67
2023-02-03T01:21:09.043Z,99.82
2023-02-03T01:26:16.006Z,99.46
2023-02-03T01:31:21.385Z,99.68
2023-02-03T01:36:27.672Z,99.90
2023-02-03T01:41:35.272Z,98.77
2023-02-03T01:46:42.504Z,99.66
2023-02-03T01:51:46.999Z,99.21
2023-02-03T01:56:55.728Z,100.00
2023-02-03T02:02:00.803Z,99.24
2023-02-03T02:07:07.684Z,100.00
2023-02-03T02:12:13.282Z,99.71
2023-02-03T02:17:30.397Z,99.89
2023-02-03T02:22:45.979Z,100.00
2023-02-03T02:28:24.903Z,100.00
2023-02-03T02:33:43.105Z,100.00
2023-02-03T02:38:56.079Z,100.00
2023-02-03T02:44:05.091Z,100.00
2023-02-03T02:49:16.121Z,100.00
2023-02-03T02:54:24.653Z,100.00
2023-02-03T02:59:28.723Z,100.00
2023-02-03T03:04:36.314Z,100.00
2023-02-03T03:09:44.176Z,100.00
2023-02-03T03:14:54.299Z,100.00
2023-02-03T03:20:03.465Z,100.00
2023-02-03T03:25:14.751Z,99.92
2023-02-03T03:30:23.872Z,99.79
2023-02-03T03:35:38.247Z,99.93
2023-02-03T03:40:50.217Z,99.28
2023-02-03T03:45:59.541Z,99.00
2023-02-03T03:51:09.438Z,98.39
2023-02-03T03:56:18.790Z,98.39
2023-02-03T04:01:24.225Z,96.70
2023-02-03T04:06:29.456Z,97.25
2023-02-03T04:11:50.916Z,96.93
2023-02-03T04:16:54.875Z,98.88
2023-02-03T04:21:59.949Z,100.00
2023-02-03T04:27:05.253Z,100.00
2023-02-03T04:32:09.170Z,100.00
2023-02-03T04:37:14.468Z,100.00
2023-02-03T04:42:18.123Z,100.00
2023-02-03T04:47:21.831Z,100.00
2023-02-03T04:52:27.299Z,100.00
2023-02-03T04:57:30.934Z,100.00
2023-02-03T05:02:34.553Z,100.00
2023-02-03T05:07:39.718Z,100.00
2023-02-03T05:12:44.076Z,100.00
2023-02-03T05:17:47.630Z,100.00
2023-02-03T05:22:52.610Z,100.00
2023-02-03T05:27:56.231Z,100.00
2023-02-03T05:32:59.832Z,100.00
2023-02-03T05:38:04.764Z,100.00
2023-02-03T05:43:09.045Z,100.00
2023-02-03T05:48:12.839Z,100.00
2023-02-03T05:53:17.894Z,100.00
2023-02-03T05:58:21.593Z,100.00
2023-02-03T06:03:25.327Z,100.00
2023-02-03T06:08:30.411Z,100.00
2023-02-03T06:13:34.221Z,100.00
2023-02-03T06:18:37.851Z,100.00
2023-02-03T06:23:42.877Z,100.00
2023-02-03T06:28:46.455Z,100.00
2023-02-03T06:33:50.189Z,100.00
2023-02-03T06:38:55.207Z,100.00
2023-02-03T06:43:58.870Z,100.00
2023-02-03T06:49:02.724Z,100.00
2023-02-03T06:54:07.816Z,100.00
2023-02-03T06:59:11.341Z,100.00
2023-02-03T07:04:14.910Z,98.64
2023-02-03T07:09:19.984Z,98.22
2023-02-03T07:14:23.632Z,96.96
2023-02-03T07:19:27.174Z,96.72
2023-02-03T07:24:32.147Z,96.07
2023-02-03T07:29:35.764Z,95.03
2023-02-03T07:34:39.327Z,94.53
2023-02-03T07:39:44.248Z,94.83
2023-02-03T07:44:47.866Z,94.94
2023-02-03T07:49:51.454Z,93.59
2023-02-03T07:54:56.627Z,92.66
2023-02-03T08:00:00.209Z,93.05
2023-02-03T08:05:03.902Z,92.51
2023-02-03T08:10:10.637Z,92.44
2023-02-03T08:15:14.852Z,92.45
2023-02-03T08:20:19.187Z,92.55
2023-02-03T08:25:24.193Z,92.39
2023-02-03T08:30:28.104Z,92.78
2023-02-03T08:35:31.923Z,93.04
2023-02-03T08:40:37.005Z,94.97
2023-02-03T08:45:41.350Z,97.98
2023-02-03T08:50:51.997Z,100.00
2023-02-03T08:55:57.116Z,100.00
2023-02-03T09:01:07.741Z,100.00
2023-02-03T09:06:13.295Z,100.00
2023-02-03T09:11:19.610Z,100.00
2023-02-03T09:16:23.424Z,100.00
2023-02-03T09:21:35.445Z,100.00
2023-02-03T09:26:42.563Z,100.00
2023-02-03T09:31:48.491Z,100.00
2023-02-03T09:36:52.547Z,100.00
2023-02-03T09:42:28.625Z,100.00
2023-02-03T09:47:37.663Z,100.00
2023-02-03T09:52:44.410Z,100.00
2023-02-03T09:57:57.023Z,100.00
2023-02-03T10:03:07.357Z,100.00
2023-02-03T10:08:22.632Z,100.00
2023-02-03T10:13:33.435Z,100.00
2023-02-03T10:18:41.558Z,100.00
2023-02-03T10:23:46.695Z,100.00
2023-02-03T10:28:55.590Z,100.00
2023-02-03T10:34:02.174Z,100.00
2023-02-03T10:39:16.826Z,100.00
2023-02-03T10:44:23.745Z,100.00
2023-02-03T10:49:30.591Z,100.00
2023-02-03T10:54:35.900Z,100.00
2023-02-03T10:59:44.698Z,100.00
2023-02-03T11:04:48.603Z,100.00
2023-02-03T11:09:52.484Z,100.00
2023-02-03T11:15:06.262Z,100.00
2023-02-03T11:20:16.789Z,100.00
2023-02-03T11:25:27.062Z,100.00
2023-02-03T11:30:32.259Z,100.00
2023-02-03T11:35:38.115Z,100.00
2023-02-03T11:40:41.733Z,100.00
2023-02-03T11:45:48.776Z,100.00
2023-02-03T11:51:01.264Z,100.00
2023-02-03T11:56:20.184Z,100.00
2023-02-03T12:01:44.706Z,100.00
2023-02-03T12:07:08.810Z,100.00
2023-02-03T12:12:32.438Z,100.00
2023-02-03T12:17:51.465Z,100.00
2023-02-03T12:23:05.368Z,100.00
2023-02-03T12:28:32.903Z,100.00
2023-02-03T12:46:41.877Z,100.00
2023-02-03T12:51:50.850Z,100.00
2023-02-03T12:56:59.845Z,100.00
2023-02-03T13:02:18.001Z,100.00
2023-02-03T13:07:36.637Z,100.00
2023-02-03T13:12:44.056Z,100.00
2023-02-03T13:17:56.292Z,100.00
2023-02-03T13:23:22.717Z,100.00
2023-02-03T13:28:47.773Z,100.00
2023-02-03T13:34:20.370Z,100.00
2023-02-03T13:39:39.909Z,100.00
2023-02-03T13:44:45.901Z,100.00
2023-02-03T13:49:56.105Z,100.00
2023-02-03T13:55:00.632Z,100.00
2023-02-03T14:00:29.143Z,100.00
2023-02-03T14:05:58.568Z,100.00
2023-02-03T14:11:39.307Z,100.00
2023-02-03T14:16:48.814Z,100.00
2023-02-03T14:21:59.099Z,100.00
2023-02-03T14:27:05.793Z,100.00
2023-02-03T14:32:11.320Z,100.00
2023-02-03T14:37:25.550Z,100.00
2023-02-03T14:43:10.171Z,100.00
2023-02-03T14:48:32.789Z,100.00
2023-02-03T14:53:50.662Z,100.00
2023-02-03T14:58:57.412Z,100.00
2023-02-03T15:04:23.425Z,100.00
2023-02-03T15:09:32.932Z,100.00
2023-02-03T15:14:37.891Z,100.00
2023-02-03T15:19:43.689Z,100.00
2023-02-03T15:24:51.049Z,100.00
2023-02-03T15:29:57.313Z,100.00
2023-02-03T15:35:06.237Z,100.00
2023-02-03T15:40:16.957Z,100.00
2023-02-03T15:45:28.080Z,100.00
2023-02-03T15:50:36.597Z,100.00
2023-02-03T15:55:45.664Z,100.00
2023-02-03T16:00:52.290Z,100.00
2023-02-03T16:05:56.420Z,100.00
2023-02-03T16:11:01.842Z,100.00
2023-02-03T16:16:09.768Z,100.00
2023-02-03T16:21:28.704Z,100.00
2023-02-03T16:26:36.784Z,100.00
2023-02-03T16:32:03.420Z,100.00
2023-02-03T16:37:31.262Z,100.00
2023-02-03T16:42:58.696Z,100.00
2023-02-03T16:48:20.263Z,100.00
2023-02-03T16:53:26.657Z,100.00
2023-02-03T16:58:32.151Z,100.00
2023-02-03T17:03:37.574Z,100.00
2023-02-03T17:08:42.947Z,100.00
2023-02-03T17:13:55.046Z,100.00
2023-02-03T17:19:16.518Z,100.00
2023-02-03T17:24:26.109Z,100.00
2023-02-03T17:29:45.477Z,100.00
2023-02-03T17:34:55.523Z,100.00
2023-02-03T17:57:04.198Z,100.00
2023-02-03T18:02:16.697Z,100.00
2023-02-03T18:07:20.840Z,100.00
2023-02-03T18:12:28.783Z,100.00
2023-02-03T18:17:38.792Z,100.00
2023-02-03T18:22:46.617Z,100.00
2023-02-03T18:27:52.216Z,100.00
2023-02-03T18:32:57.634Z,100.00
2023-02-03T18:38:01.327Z,100.00
2023-02-03T18:43:05.504Z,100.00
2023-02-03T18:48:10.731Z,100.00
2023-02-03T18:53:14.539Z,100.00
2023-02-03T18:58:18.128Z,100.00
2023-02-03T19:03:24.905Z,100.00
2023-02-03T19:08:28.685Z,100.00
2023-02-03T19:13:32.458Z,100.00
2023-02-03T19:18:37.767Z,100.00
2023-02-03T19:23:42.679Z,100.00
2023-02-03T19:28:46.384Z,100.00
2023-02-03T19:33:51.895Z,100.00
2023-02-03T19:38:55.866Z,100.00
2023-02-03T19:44:01.121Z,100.00
2023-02-03T19:49:11.053Z,100.00
2023-02-03T19:54:17.017Z,100.00
2023-02-03T19:59:20.731Z,100.00
2023-02-03T20:04:27.778Z,100.00
2023-02-03T20:09:31.387Z,100.00
2023-02-03T20:14:34.952Z,100.00
2023-02-03T20:19:39.945Z,100.00
2023-02-03T20:24:44.786Z,100.00
2023-02-03T20:29:49.713Z,100.00
2023-02-03T20:34:54.702Z,100.00
2023-02-03T20:39:58.521Z,100.00
2023-02-03T20:45:02.287Z,100.00
2023-02-03T20:50:15.255Z,100.00
2023-02-03T20:55:22.781Z,100.00
2023-02-03T21:00:28.019Z,100.00
2023-02-03T21:05:38.349Z,100.00
2023-02-03T21:10:42.404Z,100.00
2023-02-03T21:15:46.010Z,100.00
2023-02-03T21:20:54.233Z,100.00
2023-02-03T21:26:04.852Z,100.00
2023-02-03T21:31:28.391Z,100.00
2023-02-03T21:36:36.731Z,100.00
2023-02-03T21:41:40.571Z,100.00
2023-02-03T21:46:44.192Z,100.00
2023-02-03T21:51:49.642Z,100.00
2023-02-03T21:56:54.273Z,100.00
2023-02-03T22:01:58.851Z,100.00
2023-02-03T22:07:04.386Z,100.00
2023-02-03T22:12:08.545Z,100.00
2023-02-03T22:17:15.483Z,100.00
2023-02-03T22:22:20.524Z,100.00
2023-02-03T22:27:26.771Z,100.00
2023-02-03T22:32:30.602Z,100.00
2023-02-03T22:37:36.128Z,100.00
2023-02-03T22:42:40.662Z,100.00
2023-02-03T22:47:44.370Z,100.00
2023-02-03T22:52:50.857Z,100.00
2023-02-03T22:57:54.861Z,100.00
2023-02-03T23:02:59.117Z,100.00
2023-02-03T23:08:05.941Z,100.00
2023-02-03T23:13:11.495Z,100.00
2023-02-03T23:18:15.266Z,100.00
2023-02-03T23:23:20.856Z,100.00
2023-02-03T23:28:24.485Z,100.00
2023-02-03T23:33:30.149Z,100.00
2023-02-03T23:38:36.280Z,100.00
2023-02-03T23:43:39.888Z,100.00
2023-02-03T23:48:45.106Z,100.00
2023-02-03T23:53:50.135Z,100.00
2023-02-03T23:58:53.706Z,100.00
